createdAt,value
2023-03-13T00:01:40.631Z,5.85
2023-03-13T00:04:43.042Z,6.40
2023-03-13T00:07:45.384Z,6.68
2023-03-13T00:10:47.811Z,6.45
2023-03-13T00:13:54.471Z,6.43
2023-03-13T00:16:57.448Z,5.97
2023-03-13T00:20:01.546Z,7.10
2023-03-13T00:23:04.428Z,7.15
2023-03-13T00:26:09.985Z,6.30
2023-03-13T00:29:12.291Z,6.93
2023-03-13T00:32:14.622Z,6.65
2023-03-13T00:35:17.313Z,7.27
2023-03-13T00:38:19.868Z,7.65
2023-03-13T00:41:32.652Z,7.82
2023-03-13T00:44:35.038Z,7.85
2023-03-13T00:47:37.319Z,8.07
2023-03-13T00:50:39.745Z,7.87
2023-03-13T00:53:42.245Z,7.35
2023-03-13T00:56:45.569Z,6.90
2023-03-13T00:59:48.005Z,7.25
2023-03-13T01:02:50.430Z,6.90
2023-03-13T01:05:58.160Z,6.83
2023-03-13T01:09:02.774Z,6.07
2023-03-13T01:12:05.266Z,6.15
2023-03-13T01:15:08.081Z,6.20
2023-03-13T01:18:10.389Z,5.82
2023-03-13T01:21:15.388Z,6.00
2023-03-13T01:24:19.279Z,6.18
2023-03-13T01:27:21.673Z,5.95
2023-03-13T01:30:23.961Z,5.68
2023-03-13T01:33:26.870Z,6.10
2023-03-13T01:36:29.654Z,5.13
2023-03-13T01:39:31.963Z,4.78
2023-03-13T01:42:52.975Z,4.80
2023-03-13T01:46:03.163Z,4.80
2023-03-13T01:49:28.229Z,4.90
2023-03-13T01:52:36.536Z,4.43
2023-03-13T01:55:45.471Z,5.10
2023-03-13T01:58:49.742Z,5.50
2023-03-13T02:01:53.607Z,5.80
2023-03-13T02:04:59.031Z,4.78
2023-03-13T02:08:14.791Z,5.23
2023-03-13T02:11:36.508Z,4.60
2023-03-13T02:14:42.482Z,4.68
2023-03-13T02:17:46.204Z,4.93
2023-03-13T02:20:50.248Z,4.28
2023-03-13T02:24:22.994Z,4.13
2023-03-13T02:27:25.371Z,4.10
2023-03-13T02:30:28.079Z,4.30
2023-03-13T02:33:32.579Z,4.80
2023-03-13T02:36:34.888Z,4.43
2023-03-13T02:39:39.681Z,4.30
2023-03-13T02:42:43.962Z,4.43
2023-03-13T02:46:10.092Z,4.00
2023-03-13T02:49:28.175Z,4.03
2023-03-13T02:52:33.973Z,4.65
2023-03-13T02:55:40.855Z,4.20
2023-03-13T02:58:50.369Z,4.53
2023-03-13T03:01:55.729Z,4.65
2023-03-13T03:04:58.100Z,4.55
2023-03-13T03:08:00.367Z,5.15
2023-03-13T03:11:06.096Z,4.97
2023-03-13T03:14:09.592Z,4.97
2023-03-13T03:17:16.716Z,5.45
2023-03-13T03:20:19.118Z,5.15
2023-03-13T03:23:22.320Z,5.28
2023-03-13T03:26:24.698Z,4.73
2023-03-13T03:29:27.956Z,5.53
2023-03-13T03:32:32.759Z,5.28
2023-03-13T03:35:38.621Z,4.78
2023-03-13T03:38:43.259Z,5.63
2023-03-13T03:41:47.682Z,5.90
2023-03-13T03:44:50.266Z,5.45
2023-03-13T03:47:53.921Z,5.68
2023-03-13T03:50:56.335Z,4.97
2023-03-13T03:53:59.006Z,5.03
2023-03-13T03:57:02.731Z,5.07
2023-03-13T04:00:07.824Z,5.28
2023-03-13T04:03:15.533Z,4.70
2023-03-13T04:06:18.576Z,4.85
2023-03-13T04:09:21.910Z,5.10
2023-03-13T04:12:24.321Z,5.07
2023-03-13T04:15:29.301Z,5.25
2023-03-13T04:18:32.565Z,5.68
2023-03-13T04:21:35.155Z,5.22
2023-03-13T04:24:42.170Z,5.25
2023-03-13T04:27:44.715Z,4.97
2023-03-13T04:30:47.330Z,5.50
2023-03-13T04:34:02.271Z,5.55
2023-03-13T04:37:23.521Z,5.00
2023-03-13T04:40:38.988Z,5.22
2023-03-13T04:43:49.146Z,5.47
2023-03-13T04:47:14.599Z,5.03
2023-03-13T04:50:55.340Z,5.22
2023-03-13T04:54:13.864Z,5.03
2023-03-13T04:57:42.050Z,5.38
2023-03-13T05:01:10.787Z,5.40
2023-03-13T05:04:28.951Z,14.95
2023-03-13T05:07:41.477Z,8.98
2023-03-13T05:11:10.360Z,6.95
2023-03-13T05:14:38.352Z,5.70
2023-03-13T05:17:59.120Z,6.50
2023-03-13T05:21:13.848Z,6.65
2023-03-13T05:24:19.224Z,5.50
2023-03-13T05:27:44.364Z,5.13
2023-03-13T05:31:07.039Z,5.35
2023-03-13T05:34:32.516Z,4.63
2023-03-13T05:37:58.074Z,5.13
2023-03-13T05:41:12.101Z,5.43
2023-03-13T05:44:32.337Z,4.70
2023-03-13T05:48:10.265Z,5.25
2023-03-13T05:51:31.881Z,4.77
2023-03-13T05:54:52.717Z,5.13
2023-03-13T05:57:57.953Z,5.20
2023-03-13T06:01:09.248Z,5.15
2023-03-13T06:04:31.892Z,5.80
2023-03-13T06:07:34.336Z,4.47
2023-03-13T06:10:36.699Z,5.10
2023-03-13T06:13:39.114Z,5.28
2023-03-13T06:16:55.863Z,5.22
2023-03-13T06:20:01.037Z,5.65
2023-03-13T06:23:03.424Z,5.03
2023-03-13T06:26:05.832Z,5.03
2023-03-13T06:29:08.286Z,5.63
2023-03-13T06:32:10.994Z,5.10
2023-03-13T06:35:13.515Z,6.25
2023-03-13T06:38:16.266Z,5.30
2023-03-13T06:41:18.660Z,5.22
2023-03-13T06:44:21.178Z,5.07
2023-03-13T06:47:23.451Z,4.70
2023-03-13T06:50:25.797Z,4.80
2023-03-13T06:53:28.133Z,4.10
2023-03-13T06:56:30.441Z,5.00
2023-03-13T06:59:32.728Z,4.68
2023-03-13T07:02:35.038Z,4.97
2023-03-13T07:05:37.808Z,4.80
2023-03-13T07:08:57.733Z,4.27
2023-03-13T07:12:00.090Z,5.10
2023-03-13T07:15:02.576Z,4.82
2023-03-13T07:18:04.918Z,4.85
2023-03-13T07:21:07.515Z,5.15
2023-03-13T07:24:10.280Z,4.70
2023-03-13T07:27:13.556Z,5.75
2023-03-13T07:30:16.293Z,5.93
2023-03-13T07:33:19.253Z,4.45
2023-03-13T07:36:22.176Z,5.45
2023-03-13T07:39:24.946Z,5.40
2023-03-13T07:42:27.230Z,5.47
2023-03-13T07:45:29.516Z,5.78
2023-03-13T07:48:35.838Z,5.40
2023-03-13T07:51:43.908Z,5.38
2023-03-13T07:54:46.489Z,5.83
2023-03-13T07:57:48.837Z,5.90
2023-03-13T08:00:51.596Z,5.70
2023-03-13T08:03:55.965Z,5.22
2023-03-13T08:06:58.284Z,5.80
2023-03-13T08:10:00.558Z,5.50
2023-03-13T08:13:02.941Z,5.80
2023-03-13T08:16:06.807Z,5.72
2023-03-13T08:19:10.471Z,5.40
2023-03-13T08:22:12.805Z,5.30
2023-03-13T08:25:15.243Z,4.87
2023-03-13T08:28:17.525Z,5.28
2023-03-13T08:31:28.142Z,5.68
2023-03-13T08:34:31.411Z,5.15
2023-03-13T08:37:41.409Z,5.07
2023-03-13T08:40:52.590Z,5.40
2023-03-13T08:43:58.600Z,5.30
2023-03-13T08:47:00.980Z,5.63
2023-03-13T08:50:04.628Z,5.28
2023-03-13T08:53:06.938Z,5.18
2023-03-13T08:56:11.460Z,5.50
2023-03-13T08:59:15.665Z,4.70
2023-03-13T09:02:23.840Z,5.10
2023-03-13T09:05:26.298Z,4.90
2023-03-13T09:08:30.766Z,12.50
2023-03-13T09:11:34.384Z,3.90
2023-03-13T09:14:37.059Z,4.05
2023-03-13T09:17:39.354Z,4.28
2023-03-13T09:20:47.593Z,3.85
2023-03-13T09:23:51.794Z,3.42
2023-03-13T09:27:01.348Z,3.50
2023-03-13T09:30:05.178Z,4.30
2023-03-13T09:33:07.494Z,3.90
2023-03-13T09:36:10.761Z,4.18
2023-03-13T09:39:13.395Z,3.78
2023-03-13T09:42:21.851Z,3.67
2023-03-13T09:45:32.707Z,3.83
2023-03-13T09:48:45.783Z,3.63
2023-03-13T09:51:52.388Z,3.83
2023-03-13T09:55:07.146Z,3.60
2023-03-13T09:58:16.574Z,3.80
2023-03-13T10:01:22.896Z,3.72
2023-03-13T10:04:52.607Z,3.75
2023-03-13T10:08:13.781Z,3.53
2023-03-13T10:11:39.210Z,3.75
2023-03-13T10:14:49.524Z,3.90
2023-03-13T10:17:54.731Z,3.65
2023-03-13T10:21:00.158Z,3.22
2023-03-13T10:24:35.161Z,3.38
2023-03-13T10:28:07.809Z,3.88
2023-03-13T10:31:21.525Z,3.40
2023-03-13T10:34:26.458Z,3.28
2023-03-13T10:37:44.954Z,3.55
2023-03-13T10:41:02.114Z,3.15
2023-03-13T10:44:07.054Z,3.05
2023-03-13T10:47:17.701Z,3.47
2023-03-13T10:50:23.629Z,3.58
2023-03-13T10:53:29.010Z,3.92
2023-03-13T10:56:31.328Z,4.18
2023-03-13T10:59:43.348Z,3.40
2023-03-13T11:02:45.814Z,3.90
2023-03-13T11:05:58.589Z,4.03
2023-03-13T11:09:12.057Z,3.80
2023-03-13T11:12:20.952Z,4.18
2023-03-13T11:15:31.519Z,3.20
2023-03-13T11:18:51.000Z,3.20
2023-03-13T11:22:15.271Z,3.78
2023-03-13T11:25:21.537Z,4.10
2023-03-13T11:28:31.100Z,3.30
2023-03-13T11:31:59.439Z,3.45
2023-03-13T11:35:07.897Z,3.87
2023-03-13T11:38:22.467Z,3.47
2023-03-13T11:41:43.601Z,3.55
2023-03-13T11:45:01.838Z,3.90
2023-03-13T11:48:49.284Z,3.63
2023-03-13T11:52:13.329Z,3.57
2023-03-13T11:55:34.411Z,3.38
2023-03-13T11:58:54.377Z,3.45
2023-03-13T12:02:01.730Z,3.33
2023-03-13T12:05:12.789Z,3.63
2023-03-13T12:08:18.802Z,3.40
2023-03-13T12:11:47.845Z,4.05
2023-03-13T12:15:45.710Z,3.97
2023-03-13T12:18:49.810Z,3.40
2023-03-13T12:21:56.315Z,3.45
2023-03-13T12:25:06.252Z,3.33
2023-03-13T12:28:26.265Z,2.78
2023-03-13T12:31:43.523Z,3.25
2023-03-13T12:34:47.256Z,3.25
2023-03-13T12:38:19.614Z,2.80
2023-03-13T12:41:43.250Z,3.20
2023-03-13T12:44:46.038Z,3.60
2023-03-13T12:48:39.461Z,3.20
2023-03-13T12:52:14.910Z,2.80
2023-03-13T12:55:38.783Z,2.95
2023-03-13T12:58:41.148Z,2.60
2023-03-13T13:01:48.525Z,2.90
2023-03-13T13:04:53.544Z,3.13
2023-03-13T13:07:56.664Z,2.80
2023-03-13T13:11:36.667Z,3.17
2023-03-13T13:14:48.169Z,2.47
2023-03-13T13:18:03.467Z,2.33
2023-03-13T13:21:05.684Z,2.97
2023-03-13T13:24:41.138Z,1.98
2023-03-13T13:27:43.367Z,2.30
2023-03-13T13:30:45.836Z,2.27
2023-03-13T13:33:48.262Z,2.22
2023-03-13T13:36:51.414Z,2.25
2023-03-13T13:39:54.760Z,2.28
2023-03-13T13:42:59.131Z,2.10
2023-03-13T13:46:29.325Z,2.10
2023-03-13T13:49:57.322Z,1.73
2023-03-13T13:53:46.249Z,1.50
2023-03-13T13:56:50.566Z,1.60
2023-03-13T13:59:58.436Z,1.17
2023-03-13T14:03:00.878Z,1.27
2023-03-13T14:06:17.243Z,2.00
2023-03-13T14:09:41.057Z,1.52
2023-03-13T14:12:47.629Z,0.95
2023-03-13T14:15:54.106Z,1.50
2023-03-13T14:18:57.425Z,1.27
2023-03-13T14:22:06.639Z,1.35
2023-03-13T14:25:09.129Z,2.10
2023-03-13T14:28:23.991Z,1.35
2023-03-13T14:31:26.381Z,1.23
2023-03-13T14:34:30.978Z,1.10
2023-03-13T14:37:44.043Z,1.60
2023-03-13T14:40:46.436Z,1.63
2023-03-13T14:43:48.771Z,1.38
2023-03-13T14:46:55.929Z,1.48
2023-03-13T14:50:00.665Z,1.30
2023-03-13T14:53:05.429Z,1.85
2023-03-13T14:56:18.999Z,1.90
2023-03-13T14:59:26.261Z,1.50
2023-03-13T15:02:32.016Z,1.45
2023-03-13T15:05:35.046Z,1.40
2023-03-13T15:08:49.004Z,1.40
2023-03-13T15:11:57.904Z,1.50
2023-03-13T15:15:00.434Z,1.30
2023-03-13T15:18:24.507Z,1.60
2023-03-13T15:21:30.199Z,1.30
2023-03-13T15:24:33.043Z,1.20
2023-03-13T15:27:38.350Z,1.02
2023-03-13T15:30:40.634Z,1.20
2023-03-13T15:33:43.779Z,1.45
2023-03-13T15:36:46.136Z,1.30
2023-03-13T15:39:49.791Z,1.02
2023-03-13T15:42:53.056Z,1.20
2023-03-13T15:46:05.483Z,1.10
2023-03-13T15:49:13.061Z,0.90
2023-03-13T15:52:23.040Z,1.10
2023-03-13T15:55:26.687Z,1.08
2023-03-13T15:58:29.916Z,1.23
2023-03-13T16:01:34.138Z,1.20
2023-03-13T16:04:37.815Z,0.88
2023-03-13T16:07:40.137Z,0.50
2023-03-13T16:10:42.783Z,0.80
2023-03-13T16:13:45.417Z,0.90
2023-03-13T16:16:49.317Z,0.75
2023-03-13T16:19:51.681Z,0.80
2023-03-13T16:22:54.144Z,0.80
2023-03-13T16:25:56.437Z,0.80
2023-03-13T16:28:58.940Z,1.13
2023-03-13T16:32:01.288Z,0.82
2023-03-13T16:35:04.943Z,1.13
2023-03-13T16:38:10.008Z,0.50
2023-03-13T16:41:20.420Z,1.10
2023-03-13T16:44:22.822Z,0.85
2023-03-13T16:47:28.727Z,0.65
2023-03-13T16:50:38.350Z,0.95
2023-03-13T16:53:40.680Z,0.90
2023-03-13T16:56:43.467Z,0.95
2023-03-13T16:59:45.968Z,0.80
2023-03-13T17:02:49.006Z,0.65
2023-03-13T17:05:51.258Z,0.63
2023-03-13T17:08:53.743Z,0.83
2023-03-13T17:11:56.106Z,1.50
2023-03-13T17:14:58.411Z,1.58
2023-03-13T17:18:00.788Z,1.63
2023-03-13T17:21:03.033Z,1.70
2023-03-13T17:24:07.565Z,1.40
2023-03-13T17:27:12.849Z,1.92
2023-03-13T17:30:27.744Z,2.78
2023-03-13T17:33:30.029Z,2.47
2023-03-13T17:36:32.362Z,2.50
2023-03-13T17:39:34.666Z,2.40
2023-03-13T17:42:36.972Z,2.30
2023-03-13T17:45:39.214Z,2.60
2023-03-13T17:48:41.801Z,3.30
2023-03-13T17:51:46.263Z,14.18
2023-03-13T17:54:48.686Z,3.00
2023-03-13T17:57:52.250Z,2.63
2023-03-13T18:00:54.482Z,3.00
2023-03-13T18:03:57.401Z,2.67
2023-03-13T18:07:00.870Z,3.38
2023-03-13T18:10:03.578Z,3.07
2023-03-13T18:13:05.866Z,3.20
2023-03-13T18:16:20.199Z,3.53
2023-03-13T18:19:24.346Z,4.68
2023-03-13T18:22:26.627Z,4.35
2023-03-13T18:25:29.759Z,4.67
2023-03-13T18:28:32.061Z,3.90
2023-03-13T18:31:36.134Z,4.43
2023-03-13T18:34:38.540Z,3.67
2023-03-13T18:37:43.055Z,3.90
2023-03-13T18:40:45.387Z,6.10
2023-03-13T18:43:51.421Z,5.50
2023-03-13T18:46:53.741Z,5.10
2023-03-13T18:49:56.086Z,4.88
2023-03-13T18:52:59.565Z,4.90
2023-03-13T18:56:06.583Z,4.67
2023-03-13T18:59:14.065Z,4.65
2023-03-13T19:02:18.413Z,4.65
2023-03-13T19:05:20.812Z,4.43
2023-03-13T19:08:23.095Z,3.90
2023-03-13T19:11:30.784Z,4.30
2023-03-13T19:14:33.632Z,4.18
2023-03-13T19:17:35.998Z,4.55
2023-03-13T19:20:38.241Z,4.70
2023-03-13T19:23:40.548Z,5.00
2023-03-13T19:26:46.243Z,4.17
2023-03-13T19:29:48.647Z,5.07
2023-03-13T19:32:51.035Z,5.03
2023-03-13T19:35:53.399Z,5.18
2023-03-13T19:38:55.737Z,5.00
2023-03-13T19:41:58.650Z,6.20
2023-03-13T19:45:01.291Z,5.93
2023-03-13T19:48:03.720Z,6.72
2023-03-13T19:51:06.163Z,5.72
2023-03-13T19:54:10.824Z,5.90
2023-03-13T19:57:13.132Z,6.03
2023-03-13T20:00:24.691Z,5.90
2023-03-13T20:03:28.978Z,6.70
2023-03-13T20:06:33.220Z,6.13
2023-03-13T20:09:36.652Z,5.57
2023-03-13T20:12:39.321Z,6.20
2023-03-13T20:15:42.828Z,5.50
2023-03-13T20:18:47.592Z,5.70
2023-03-13T20:21:49.991Z,5.45
2023-03-13T20:24:53.666Z,5.63
2023-03-13T20:27:56.400Z,5.83
2023-03-13T20:30:58.705Z,5.65
2023-03-13T20:34:01.171Z,6.20
2023-03-13T20:37:04.008Z,5.10
2023-03-13T20:40:08.760Z,6.22
2023-03-13T20:43:11.032Z,6.03
2023-03-13T20:46:13.439Z,5.75
2023-03-13T20:49:15.704Z,6.20
2023-03-13T20:52:17.982Z,6.20
2023-03-13T20:55:20.233Z,5.72
2023-03-13T20:58:23.969Z,5.17
2023-03-13T21:01:27.570Z,5.90
2023-03-13T21:04:30.336Z,5.50
2023-03-13T21:07:32.700Z,5.90
2023-03-13T21:10:44.462Z,5.35
2023-03-13T21:13:46.989Z,5.00
2023-03-13T21:16:49.291Z,5.18
2023-03-13T21:19:51.868Z,5.97
2023-03-13T21:22:54.142Z,5.35
2023-03-13T21:25:56.512Z,4.82
2023-03-13T21:28:58.844Z,5.67
2023-03-13T21:32:01.221Z,6.03
2023-03-13T21:35:04.540Z,5.75
2023-03-13T21:38:07.041Z,5.88
2023-03-13T21:41:14.086Z,6.00
2023-03-13T21:44:19.716Z,5.53
2023-03-13T21:47:24.573Z,5.93
2023-03-13T21:50:27.386Z,6.28
2023-03-13T21:53:29.668Z,5.95
2023-03-13T21:56:31.994Z,6.88
2023-03-13T21:59:34.329Z,7.30
2023-03-13T22:02:36.653Z,9.23
2023-03-13T22:05:44.808Z,11.55
2023-03-13T22:08:51.772Z,9.32
2023-03-13T22:11:54.092Z,7.72
2023-03-13T22:14:57.829Z,6.70
2023-03-13T22:18:00.230Z,5.93
2023-03-13T22:21:02.723Z,5.80
2023-03-13T22:24:05.165Z,5.55
2023-03-13T22:27:09.202Z,5.35
2023-03-13T22:30:12.139Z,5.10
2023-03-13T22:33:14.582Z,4.93
2023-03-13T22:36:18.156Z,5.65
2023-03-13T22:39:25.160Z,4.72
2023-03-13T22:42:28.008Z,4.60
2023-03-13T22:45:32.219Z,4.60
2023-03-13T22:48:34.508Z,4.40
2023-03-13T22:51:36.791Z,5.03
2023-03-13T22:54:39.078Z,4.90
2023-03-13T22:57:41.390Z,4.57
2023-03-13T23:00:43.753Z,4.30
2023-03-13T23:03:46.177Z,4.30
2023-03-13T23:06:48.445Z,4.35
2023-03-13T23:09:50.760Z,4.20
2023-03-13T23:12:53.047Z,4.35
2023-03-13T23:15:56.176Z,4.73
2023-03-13T23:18:58.798Z,4.70
2023-03-13T23:22:01.070Z,4.63
2023-03-13T23:25:03.514Z,4.57
2023-03-13T23:28:06.312Z,5.03
2023-03-13T23:31:19.361Z,4.33
2023-03-13T23:34:22.174Z,4.50
2023-03-13T23:37:24.809Z,4.55
2023-03-13T23:40:28.357Z,4.07
2023-03-13T23:43:30.692Z,6.22
2023-03-13T23:46:32.989Z,4.37
2023-03-13T23:49:35.244Z,4.07
2023-03-13T23:52:37.536Z,4.18
2023-03-13T23:55:39.806Z,4.07
2023-03-13T23:58:42.576Z,3.83
